createdAt,value
2023-05-15T00:00:06.462Z,51.05
2023-05-15T00:02:34.813Z,50.99
2023-05-15T00:05:03.136Z,51.29
2023-05-15T00:07:32.561Z,51.35
2023-05-15T00:10:00.801Z,51.11
2023-05-15T00:12:28.934Z,50.93
2023-05-15T00:14:57.404Z,50.64
2023-05-15T00:17:25.366Z,50.87
2023-05-15T00:19:57.544Z,50.99
2023-05-15T00:22:25.989Z,51.11
2023-05-15T00:24:55.366Z,50.99
2023-05-15T00:27:23.347Z,50.86
2023-05-15T00:29:51.342Z,50.82
2023-05-15T00:32:19.266Z,50.83
2023-05-15T00:34:47.157Z,50.92
2023-05-15T00:37:15.104Z,50.75
2023-05-15T00:39:43.084Z,50.71
2023-05-15T00:42:12.339Z,50.85
2023-05-15T00:44:40.262Z,50.52
2023-05-15T00:47:08.845Z,50.74
2023-05-15T00:49:37.431Z,50.53
2023-05-15T00:52:08.349Z,50.79
2023-05-15T00:54:36.329Z,50.53
2023-05-15T00:57:05.067Z,50.55
2023-05-15T00:59:34.541Z,50.55
2023-05-15T01:02:02.482Z,50.49
2023-05-15T01:04:30.455Z,50.37
2023-05-15T01:06:58.354Z,50.61
2023-05-15T01:09:26.352Z,50.44
2023-05-15T01:11:55.406Z,50.41
2023-05-15T01:14:23.304Z,51.04
2023-05-15T01:16:52.576Z,50.97
2023-05-15T01:19:20.549Z,51.13
2023-05-15T01:22:22.114Z,51.54
2023-05-15T01:25:22.211Z,51.67
2023-05-15T01:27:51.865Z,51.64
2023-05-15T01:30:22.213Z,51.42
2023-05-15T01:32:54.467Z,51.28
2023-05-15T01:35:24.743Z,51.23
2023-05-15T01:37:56.363Z,51.61
2023-05-15T01:40:24.435Z,51.65
2023-05-15T01:42:56.006Z,51.48
2023-05-15T01:45:25.430Z,51.75
2023-05-15T01:47:54.602Z,51.41
2023-05-15T01:50:22.758Z,51.43
2023-05-15T01:52:52.176Z,51.71
2023-05-15T01:55:20.743Z,51.54
2023-05-15T01:57:48.935Z,51.47
2023-05-15T02:00:18.586Z,51.47
2023-05-15T02:02:47.109Z,51.24
2023-05-15T02:05:15.433Z,51.90
2023-05-15T02:07:43.523Z,51.71
2023-05-15T02:10:11.673Z,51.58
2023-05-15T02:12:40.199Z,51.47
2023-05-15T02:15:09.352Z,51.53
2023-05-15T02:17:38.705Z,51.69
2023-05-15T02:20:08.376Z,51.57
2023-05-15T02:22:36.304Z,51.36
2023-05-15T02:25:04.431Z,51.44
2023-05-15T02:27:35.648Z,51.46
2023-05-15T02:30:13.229Z,51.48
2023-05-15T02:32:45.074Z,51.60
2023-05-15T02:35:18.324Z,51.54
2023-05-15T02:37:48.104Z,51.70
2023-05-15T02:40:16.287Z,51.39
2023-05-15T02:42:44.618Z,51.54
2023-05-15T02:45:12.994Z,51.55
2023-05-15T02:47:41.305Z,51.53
2023-05-15T02:50:11.235Z,52.01
2023-05-15T02:52:39.225Z,51.83
2023-05-15T02:55:08.360Z,51.81
2023-05-15T02:57:36.251Z,51.83
2023-05-15T03:00:06.635Z,51.90
2023-05-15T03:02:34.590Z,52.15
2023-05-15T03:05:02.641Z,51.77
2023-05-15T03:07:31.962Z,51.74
2023-05-15T03:09:59.857Z,52.00
2023-05-15T03:12:27.792Z,52.22
2023-05-15T03:14:55.688Z,51.96
2023-05-15T03:17:23.617Z,52.10
2023-05-15T03:19:51.546Z,52.12
2023-05-15T03:22:19.441Z,51.71
2023-05-15T03:24:49.121Z,51.56
2023-05-15T03:27:17.025Z,51.97
2023-05-15T03:29:44.909Z,51.81
2023-05-15T03:32:12.892Z,51.56
2023-05-15T03:34:41.231Z,51.59
2023-05-15T03:37:09.177Z,51.46
2023-05-15T03:39:37.076Z,51.53
2023-05-15T03:42:06.964Z,51.18
2023-05-15T03:44:35.044Z,51.38
2023-05-15T03:47:03.034Z,51.10
2023-05-15T03:49:31.023Z,51.29
2023-05-15T03:51:58.942Z,51.35
2023-05-15T03:54:26.851Z,51.35
2023-05-15T03:56:54.743Z,51.24
2023-05-15T03:59:24.042Z,51.08
2023-05-15T04:02:03.448Z,51.12
2023-05-15T04:04:32.466Z,51.20
2023-05-15T04:07:00.410Z,51.62
2023-05-15T04:09:28.384Z,51.33
2023-05-15T04:11:56.266Z,51.05
2023-05-15T04:14:26.016Z,51.44
2023-05-15T04:16:53.866Z,52.04
2023-05-15T04:19:21.811Z,51.91
2023-05-15T04:21:49.679Z,52.11
2023-05-15T04:24:17.556Z,52.19
2023-05-15T04:26:54.782Z,51.80
2023-05-15T04:29:22.669Z,52.29
2023-05-15T04:31:52.088Z,51.68
2023-05-15T04:34:20.254Z,51.83
2023-05-15T04:36:51.230Z,51.94
2023-05-15T04:39:19.132Z,52.11
2023-05-15T04:41:47.141Z,51.99
2023-05-15T04:44:17.845Z,52.04
2023-05-15T04:46:45.726Z,52.17
2023-05-15T04:49:14.913Z,51.92
2023-05-15T04:51:43.386Z,51.57
2023-05-15T04:54:11.424Z,51.88
2023-05-15T04:56:39.403Z,51.70
2023-05-15T04:59:07.313Z,51.66
2023-05-15T05:01:35.260Z,51.50
2023-05-15T05:04:03.323Z,51.92
2023-05-15T05:06:32.742Z,51.79
2023-05-15T05:09:00.610Z,51.94
2023-05-15T05:11:28.534Z,51.91
2023-05-15T05:13:56.560Z,52.00
2023-05-15T05:16:24.487Z,51.87
2023-05-15T05:18:52.467Z,51.37
2023-05-15T05:21:20.703Z,51.16
2023-05-15T05:23:50.022Z,50.28
2023-05-15T05:26:17.935Z,50.00
2023-05-15T05:28:45.895Z,50.11
2023-05-15T05:31:13.988Z,50.08
2023-05-15T05:33:42.268Z,49.14
2023-05-15T05:36:10.687Z,50.64
2023-05-15T05:38:39.147Z,51.38
2023-05-15T05:41:08.530Z,50.83
2023-05-15T05:43:36.523Z,49.27
2023-05-15T05:46:04.470Z,50.29
2023-05-15T05:48:32.374Z,50.75
2023-05-15T05:51:00.299Z,50.77
2023-05-15T05:53:28.255Z,50.56
2023-05-15T05:55:56.728Z,50.98
2023-05-15T05:58:26.506Z,50.68
2023-05-15T06:00:54.593Z,50.05
2023-05-15T06:03:22.639Z,50.41
2023-05-15T06:05:50.972Z,49.18
2023-05-15T06:08:19.680Z,49.95
2023-05-15T06:10:47.636Z,49.60
2023-05-15T06:13:15.694Z,50.07
2023-05-15T06:15:45.719Z,50.21
2023-05-15T06:18:13.700Z,50.13
2023-05-15T06:20:42.719Z,49.42
2023-05-15T06:23:10.906Z,50.40
2023-05-15T06:25:38.848Z,50.24
2023-05-15T06:28:06.823Z,50.29
2023-05-15T06:30:35.208Z,50.30
2023-05-15T06:33:04.656Z,50.26
2023-05-15T06:35:32.631Z,50.46
2023-05-15T06:38:00.717Z,49.91
2023-05-15T06:40:28.778Z,50.13
2023-05-15T06:42:56.861Z,50.30
2023-05-15T06:45:24.933Z,50.09
2023-05-15T06:47:53.087Z,50.20
2023-05-15T06:50:22.779Z,50.31
2023-05-15T06:52:51.405Z,50.33
2023-05-15T06:55:19.685Z,50.33
2023-05-15T06:57:48.013Z,50.09
2023-05-15T07:00:16.920Z,50.27
2023-05-15T07:02:44.948Z,49.82
2023-05-15T07:05:12.960Z,50.14
2023-05-15T07:07:42.801Z,50.11
2023-05-15T07:10:11.440Z,50.06
2023-05-15T07:12:39.421Z,50.25
2023-05-15T07:15:08.768Z,50.01
2023-05-15T07:17:36.794Z,49.89
2023-05-15T07:20:06.166Z,50.15
2023-05-15T07:22:38.796Z,50.06
2023-05-15T07:25:16.812Z,50.17
2023-05-15T07:27:45.451Z,50.02
2023-05-15T07:30:14.304Z,49.74
2023-05-15T07:32:42.505Z,49.73
2023-05-15T07:35:11.590Z,49.46
2023-05-15T07:37:39.674Z,49.50
2023-05-15T07:40:08.717Z,49.84
2023-05-15T07:42:39.716Z,49.72
2023-05-15T07:45:08.965Z,49.55
2023-05-15T07:47:37.154Z,49.52
2023-05-15T07:50:05.593Z,49.40
2023-05-15T07:52:33.677Z,49.33
2023-05-15T07:55:01.639Z,49.46
2023-05-15T07:57:29.892Z,49.73
2023-05-15T07:59:59.413Z,49.33
2023-05-15T08:02:27.479Z,49.41
2023-05-15T08:04:55.448Z,49.67
2023-05-15T08:07:23.449Z,49.24
2023-05-15T08:09:51.881Z,49.42
2023-05-15T08:12:21.444Z,49.09
2023-05-15T08:14:50.559Z,49.17
2023-05-15T08:17:20.759Z,49.31
2023-05-15T08:19:49.090Z,49.20
2023-05-15T08:22:17.040Z,49.31
2023-05-15T08:24:45.246Z,49.25
2023-05-15T08:27:13.199Z,48.88
2023-05-15T08:29:41.164Z,48.80
2023-05-15T08:32:10.018Z,48.71
2023-05-15T08:34:39.700Z,48.97
2023-05-15T08:37:07.702Z,48.51
2023-05-15T08:39:35.694Z,48.59
2023-05-15T08:42:07.224Z,48.53
2023-05-15T08:44:35.243Z,48.56
2023-05-15T08:47:03.693Z,48.92
2023-05-15T08:49:37.311Z,48.63
2023-05-15T08:52:07.026Z,48.60
2023-05-15T08:54:34.975Z,48.69
2023-05-15T08:57:03.522Z,48.38
2023-05-15T08:59:31.658Z,48.95
2023-05-15T09:01:59.650Z,48.62
2023-05-15T09:04:27.671Z,48.78
2023-05-15T09:06:56.219Z,48.75
2023-05-15T09:09:25.786Z,48.58
2023-05-15T09:11:53.717Z,48.54
2023-05-15T09:14:21.659Z,48.68
2023-05-15T09:16:51.159Z,48.30
2023-05-15T09:19:19.190Z,48.28
2023-05-15T09:21:47.174Z,48.31
2023-05-15T09:24:18.993Z,48.31
2023-05-15T09:26:48.839Z,48.47
2023-05-15T09:29:18.678Z,48.63
2023-05-15T09:31:47.769Z,48.51
2023-05-15T09:34:15.700Z,48.39
2023-05-15T09:36:44.959Z,47.96
2023-05-15T09:39:13.343Z,47.74
2023-05-15T09:41:43.013Z,48.31
2023-05-15T09:44:21.776Z,47.97
2023-05-15T09:46:50.273Z,48.07
2023-05-15T09:49:18.448Z,48.10
2023-05-15T09:51:46.734Z,47.85
2023-05-15T09:54:16.058Z,47.90
2023-05-15T09:56:44.541Z,47.81
2023-05-15T09:59:14.433Z,47.67
2023-05-15T10:01:46.009Z,47.81
2023-05-15T10:04:14.487Z,48.13
2023-05-15T10:06:43.447Z,47.86
2023-05-15T10:09:11.617Z,48.07
2023-05-15T10:11:40.420Z,48.16
2023-05-15T10:14:11.591Z,48.04
2023-05-15T10:16:40.283Z,48.33
2023-05-15T10:19:10.424Z,48.90
2023-05-15T10:21:39.112Z,48.83
2023-05-15T10:24:07.462Z,48.64
2023-05-15T10:26:38.183Z,48.90
2023-05-15T10:29:06.945Z,48.70
2023-05-15T10:31:35.580Z,48.89
2023-05-15T10:34:03.681Z,48.94
2023-05-15T10:36:33.114Z,48.96
2023-05-15T10:39:01.960Z,48.79
2023-05-15T10:41:30.609Z,49.17
2023-05-15T10:43:59.796Z,49.46
2023-05-15T10:46:27.849Z,49.16
2023-05-15T10:48:55.818Z,49.46
2023-05-15T10:51:26.134Z,49.00
2023-05-15T10:53:55.641Z,49.37
2023-05-15T10:56:27.670Z,49.00
2023-05-15T10:58:56.458Z,48.84
2023-05-15T11:01:28.601Z,48.68
2023-05-15T11:04:10.435Z,48.51
2023-05-15T11:06:38.584Z,48.35
2023-05-15T11:09:36.234Z,48.91
2023-05-15T11:12:04.788Z,48.68
2023-05-15T11:14:33.016Z,49.08
2023-05-15T11:17:03.839Z,49.03
2023-05-15T11:19:39.495Z,49.62
2023-05-15T11:22:20.654Z,48.95
2023-05-15T11:24:51.814Z,49.37
2023-05-15T11:27:22.212Z,49.36
2023-05-15T11:30:12.609Z,48.34
2023-05-15T11:32:50.713Z,48.55
2023-05-15T11:35:29.012Z,48.95
2023-05-15T11:37:57.631Z,48.79
2023-05-15T11:40:27.963Z,49.25
2023-05-15T11:43:06.851Z,49.56
2023-05-15T11:45:35.983Z,48.44
2023-05-15T11:48:04.898Z,48.76
2023-05-15T11:50:36.361Z,49.20
2023-05-15T11:53:05.550Z,49.49
2023-05-15T11:55:35.666Z,49.10
2023-05-15T11:58:04.376Z,48.88
2023-05-15T12:00:32.226Z,48.83
2023-05-15T12:03:00.277Z,48.88
2023-05-15T12:05:28.256Z,48.49
2023-05-15T12:07:56.374Z,48.72
2023-05-15T12:10:24.503Z,48.93
2023-05-15T12:12:54.034Z,49.30
2023-05-15T12:15:21.948Z,49.17
2023-05-15T12:17:51.730Z,48.87
2023-05-15T12:20:19.896Z,49.17
2023-05-15T12:22:47.958Z,49.22
2023-05-15T12:25:16.488Z,49.17
2023-05-15T12:27:44.450Z,49.29
2023-05-15T12:30:16.073Z,49.20
2023-05-15T12:32:44.011Z,49.09
2023-05-15T12:35:12.048Z,49.49
2023-05-15T12:37:41.187Z,48.71
2023-05-15T12:40:12.048Z,48.60
2023-05-15T12:42:41.259Z,49.46
2023-05-15T12:45:15.342Z,49.25
2023-05-15T12:47:43.778Z,49.24
2023-05-15T12:50:16.835Z,48.70
2023-05-15T12:52:54.209Z,49.27
2023-05-15T12:55:24.550Z,48.88
2023-05-15T12:57:52.827Z,49.30
2023-05-15T13:00:25.752Z,49.37
2023-05-15T13:02:54.881Z,49.79
2023-05-15T13:05:24.093Z,48.73
2023-05-15T13:07:52.547Z,48.93
2023-05-15T13:10:22.048Z,48.45
2023-05-15T13:12:49.974Z,48.63
2023-05-15T13:15:27.014Z,49.31
2023-05-15T13:17:57.532Z,48.80
2023-05-15T13:20:25.975Z,49.04
2023-05-15T13:22:54.126Z,48.97
2023-05-15T13:25:22.785Z,48.89
2023-05-15T13:27:51.246Z,48.59
2023-05-15T13:30:19.636Z,48.94
2023-05-15T13:32:49.059Z,48.94
2023-05-15T13:35:17.042Z,48.43
2023-05-15T13:37:44.967Z,49.01
2023-05-15T13:40:13.559Z,48.65
2023-05-15T13:42:42.246Z,48.24
2023-05-15T13:45:11.603Z,48.02
2023-05-15T13:47:39.848Z,48.27
2023-05-15T13:50:10.461Z,48.78
2023-05-15T13:52:38.612Z,48.13
2023-05-15T13:55:09.845Z,48.79
2023-05-15T13:57:37.924Z,48.51
2023-05-15T14:00:07.435Z,49.02
2023-05-15T14:02:35.391Z,49.13
2023-05-15T14:05:04.681Z,49.30
2023-05-15T14:07:34.046Z,48.74
2023-05-15T14:10:02.042Z,49.01
2023-05-15T14:12:29.974Z,49.30
2023-05-15T14:14:59.220Z,49.33
2023-05-15T14:17:27.900Z,48.74
2023-05-15T14:19:56.174Z,49.04
2023-05-15T14:22:27.029Z,48.26
2023-05-15T14:24:56.334Z,48.12
2023-05-15T14:27:24.270Z,47.10
2023-05-15T14:29:52.509Z,45.81
2023-05-15T14:32:20.561Z,45.05
2023-05-15T14:34:48.660Z,44.08
2023-05-15T14:37:16.848Z,43.29
2023-05-15T14:39:44.769Z,42.59
2023-05-15T14:42:17.171Z,42.43
2023-05-15T14:44:45.211Z,41.86
2023-05-15T14:47:13.665Z,41.73
2023-05-15T14:49:41.767Z,41.31
2023-05-15T14:52:10.145Z,42.04
2023-05-15T14:54:38.367Z,42.48
2023-05-15T14:57:06.814Z,43.59
2023-05-15T14:59:36.624Z,44.57
2023-05-15T15:02:04.749Z,44.70
2023-05-15T15:04:34.541Z,44.47
2023-05-15T15:07:04.611Z,44.33
2023-05-15T15:09:32.749Z,43.73
2023-05-15T15:12:00.766Z,43.96
2023-05-15T15:14:29.237Z,43.85
2023-05-15T15:16:58.550Z,44.33
2023-05-15T15:19:26.589Z,43.55
2023-05-15T15:21:54.575Z,43.61
2023-05-15T15:24:22.472Z,43.69
2023-05-15T15:26:50.440Z,43.60
2023-05-15T15:29:18.359Z,43.62
2023-05-15T15:31:46.429Z,43.97
2023-05-15T15:34:16.023Z,44.20
2023-05-15T15:36:45.073Z,44.59
2023-05-15T15:39:13.267Z,44.40
2023-05-15T15:41:41.236Z,44.85
2023-05-15T15:44:09.224Z,45.21
2023-05-15T15:46:37.359Z,45.43
2023-05-15T15:49:06.741Z,45.99
2023-05-15T15:51:36.268Z,45.69
2023-05-15T15:54:04.288Z,46.07
2023-05-15T15:56:32.246Z,45.14
2023-05-15T15:59:00.339Z,45.51
2023-05-15T16:01:28.678Z,45.74
2023-05-15T16:03:56.779Z,45.56
2023-05-15T16:06:24.717Z,45.89
2023-05-15T16:08:54.500Z,45.97
2023-05-15T16:11:22.613Z,46.73
2023-05-15T16:13:50.600Z,45.83
2023-05-15T16:16:18.754Z,46.15
2023-05-15T16:18:46.996Z,46.23
2023-05-15T16:21:15.266Z,46.33
2023-05-15T16:23:43.317Z,46.73
2023-05-15T16:26:12.590Z,46.49
2023-05-15T16:28:40.594Z,46.67
2023-05-15T16:31:08.750Z,47.11
2023-05-15T16:33:36.944Z,47.29
2023-05-15T16:36:06.476Z,46.96
2023-05-15T16:38:34.707Z,48.06
2023-05-15T16:41:03.465Z,47.52
2023-05-15T16:43:32.783Z,46.96
2023-05-15T16:46:00.628Z,47.40
2023-05-15T16:48:28.891Z,47.07
2023-05-15T16:50:59.751Z,47.02
2023-05-15T16:53:27.884Z,47.14
2023-05-15T16:55:55.887Z,46.86
2023-05-15T16:58:23.855Z,46.63
2023-05-15T17:00:53.284Z,46.96
2023-05-15T17:03:21.425Z,46.71
2023-05-15T17:05:49.615Z,47.23
2023-05-15T17:08:17.672Z,46.31
2023-05-15T17:10:45.604Z,45.95
2023-05-15T17:13:13.540Z,46.49
2023-05-15T17:15:41.436Z,45.87
2023-05-15T17:18:10.732Z,45.67
2023-05-15T17:20:38.792Z,45.95
2023-05-15T17:23:06.699Z,45.96
2023-05-15T17:25:34.606Z,45.88
2023-05-15T17:28:03.029Z,45.82
2023-05-15T17:30:31.065Z,45.95
2023-05-15T17:33:00.390Z,45.70
2023-05-15T17:35:32.187Z,45.95
2023-05-15T17:38:00.986Z,46.21
2023-05-15T17:40:28.880Z,45.65
2023-05-15T17:42:56.797Z,46.67
2023-05-15T17:45:24.862Z,45.64
2023-05-15T17:47:53.019Z,46.85
2023-05-15T17:50:20.954Z,46.39
2023-05-15T17:52:50.269Z,46.60
2023-05-15T17:55:18.285Z,47.27
2023-05-15T17:57:46.151Z,47.68
2023-05-15T18:00:15.308Z,48.40
2023-05-15T18:02:43.322Z,48.23
2023-05-15T18:05:11.640Z,49.09
2023-05-15T18:07:39.927Z,49.17
2023-05-15T18:10:10.780Z,48.37
2023-05-15T18:12:38.853Z,49.75
2023-05-15T18:15:07.751Z,49.58
2023-05-15T18:17:35.765Z,50.60
2023-05-15T18:20:05.684Z,48.92
2023-05-15T18:22:33.693Z,50.14
2023-05-15T18:25:02.101Z,50.37
2023-05-15T18:27:34.760Z,50.28
2023-05-15T18:30:03.031Z,50.59
2023-05-15T18:32:31.143Z,50.26
2023-05-15T18:34:59.778Z,51.18
2023-05-15T18:37:27.719Z,51.27
2023-05-15T18:39:57.035Z,50.50
2023-05-15T18:44:54.775Z,50.94
2023-05-15T18:47:22.780Z,50.78
2023-05-15T18:49:51.348Z,51.46
2023-05-15T18:52:20.075Z,49.82
2023-05-15T18:54:48.875Z,51.46
2023-05-15T18:57:17.068Z,51.66
2023-05-15T18:59:45.581Z,52.04
2023-05-15T19:04:42.808Z,51.65
2023-05-15T19:07:10.852Z,52.67
2023-05-15T19:09:38.759Z,52.90
2023-05-15T19:12:09.652Z,53.22
2023-05-15T19:14:37.554Z,53.04
2023-05-15T19:17:06.062Z,52.18
2023-05-15T19:19:35.844Z,52.67
2023-05-15T19:22:03.826Z,53.02
2023-05-15T19:24:33.424Z,53.13
2023-05-15T19:27:01.617Z,52.98
2023-05-15T19:29:29.566Z,52.94
2023-05-15T19:31:57.572Z,53.26
2023-05-15T19:34:25.554Z,53.91
2023-05-15T19:36:55.003Z,53.41
2023-05-15T19:39:23.015Z,53.64
2023-05-15T19:41:51.176Z,51.30
2023-05-15T19:44:19.103Z,53.29
2023-05-15T19:46:47.061Z,52.48
2023-05-15T19:49:14.945Z,52.30
2023-05-15T19:51:42.842Z,52.67
2023-05-15T19:54:12.330Z,53.60
2023-05-15T19:56:43.025Z,53.13
2023-05-15T19:59:11.032Z,54.17
2023-05-15T20:01:38.962Z,53.94
2023-05-15T20:04:07.152Z,54.46
2023-05-15T20:06:35.170Z,52.71
2023-05-15T20:09:03.119Z,52.66
2023-05-15T20:11:35.462Z,53.85
2023-05-15T20:14:03.389Z,52.65
2023-05-15T20:16:31.483Z,54.35
2023-05-15T20:18:59.954Z,52.48
2023-05-15T20:21:28.016Z,53.04
2023-05-15T20:23:56.395Z,53.74
2023-05-15T20:26:24.443Z,53.75
2023-05-15T20:28:53.787Z,54.25
2023-05-15T20:31:21.772Z,54.06
2023-05-15T20:33:49.891Z,54.41
2023-05-15T20:36:18.495Z,54.99
2023-05-15T20:38:46.903Z,54.87
2023-05-15T20:41:16.566Z,55.24
2023-05-15T20:43:44.488Z,55.01
2023-05-15T20:46:13.805Z,55.26
2023-05-15T20:48:41.689Z,55.25
2023-05-15T20:51:09.600Z,54.42
2023-05-15T20:53:37.545Z,53.64
2023-05-15T20:56:05.539Z,52.76
2023-05-15T20:58:36.539Z,55.08
2023-05-15T21:01:04.418Z,54.31
2023-05-15T21:03:33.793Z,53.89
2023-05-15T21:06:02.512Z,53.90
2023-05-15T21:08:30.711Z,53.18
2023-05-15T21:10:58.665Z,54.57
2023-05-15T21:13:26.567Z,54.16
2023-05-15T21:15:54.490Z,55.44
2023-05-15T21:18:22.448Z,55.04
2023-05-15T21:20:51.772Z,54.92
2023-05-15T21:23:21.011Z,54.97
2023-05-15T21:25:49.017Z,54.25
2023-05-15T21:28:16.937Z,55.33
2023-05-15T21:30:45.029Z,56.25
2023-05-15T21:33:13.114Z,56.50
2023-05-15T21:35:41.094Z,56.57
2023-05-15T21:38:10.385Z,55.47
2023-05-15T21:40:38.325Z,55.54
2023-05-15T21:43:06.400Z,56.37
2023-05-15T21:45:34.350Z,55.83
2023-05-15T21:48:02.345Z,56.05
2023-05-15T21:50:30.265Z,54.14
2023-05-15T21:52:58.651Z,55.06
2023-05-15T21:55:27.992Z,56.06
2023-05-15T21:57:56.009Z,56.73
2023-05-15T22:00:24.362Z,56.64
2023-05-15T22:02:52.628Z,57.35
2023-05-15T22:05:20.585Z,56.40
2023-05-15T22:07:48.557Z,57.22
2023-05-15T22:10:17.313Z,57.34
2023-05-15T22:12:46.883Z,57.71
2023-05-15T22:15:16.745Z,58.07
2023-05-15T22:17:44.746Z,57.15
2023-05-15T22:20:13.977Z,57.35
2023-05-15T22:22:42.997Z,56.19
2023-05-15T22:25:11.155Z,57.46
2023-05-15T22:27:39.169Z,57.57
2023-05-15T22:30:09.952Z,57.28
2023-05-15T22:32:38.002Z,57.18
2023-05-15T22:35:06.848Z,57.84
2023-05-15T22:37:34.784Z,58.17
2023-05-15T22:40:02.775Z,57.77
2023-05-15T22:42:30.782Z,57.82
2023-05-15T22:44:59.155Z,56.70
2023-05-15T22:47:29.236Z,57.70
2023-05-15T22:49:57.198Z,56.97
2023-05-15T22:52:25.289Z,57.52
2023-05-15T22:55:10.993Z,58.04
2023-05-15T22:57:38.901Z,56.69
2023-05-15T23:00:08.145Z,57.41
2023-05-15T23:02:37.997Z,58.27
2023-05-15T23:05:06.491Z,57.77
2023-05-15T23:07:34.715Z,57.23
2023-05-15T23:10:02.711Z,57.66
2023-05-15T23:12:30.919Z,58.46
2023-05-15T23:14:58.795Z,58.22
2023-05-15T23:17:26.820Z,58.66
2023-05-15T23:19:56.241Z,58.40
2023-05-15T23:22:24.168Z,58.32
2023-05-15T23:24:52.080Z,58.78
2023-05-15T23:27:19.993Z,58.11
2023-05-15T23:29:47.911Z,58.36
2023-05-15T23:32:15.912Z,58.28
2023-05-15T23:34:44.047Z,58.39
2023-05-15T23:37:13.369Z,58.62
2023-05-15T23:39:41.251Z,58.34
2023-05-15T23:42:10.021Z,58.63
2023-05-15T23:44:38.075Z,58.30
2023-05-15T23:47:06.713Z,58.60
2023-05-15T23:49:35.348Z,57.72
2023-05-15T23:52:03.242Z,57.24
2023-05-15T23:54:32.709Z,57.28
2023-05-15T23:57:02.309Z,58.26
2023-05-15T23:59:31.082Z,57.58
